createdAt,value
2023-09-26T00:01:20.515Z,12.00
2023-09-26T00:04:09.992Z,10.70
2023-09-26T00:07:01.202Z,12.13
2023-09-26T00:09:49.225Z,10.57
2023-09-26T00:12:38.638Z,12.23
2023-09-26T00:15:26.367Z,12.30
2023-09-26T00:18:14.498Z,15.77
2023-09-26T00:21:02.447Z,13.43
2023-09-26T00:23:50.538Z,12.30
2023-09-26T00:26:38.684Z,10.80
2023-09-26T00:29:27.864Z,10.40
2023-09-26T00:32:15.627Z,11.00
2023-09-26T00:35:05.285Z,10.50
2023-09-26T00:37:54.555Z,6.20
2023-09-26T00:40:42.832Z,11.88
2023-09-26T00:43:30.735Z,11.70
2023-09-26T00:46:22.470Z,10.18
2023-09-26T00:49:11.605Z,12.05
2023-09-26T00:52:00.952Z,11.40
2023-09-26T00:54:49.307Z,12.57
2023-09-26T00:57:38.667Z,10.23
2023-09-26T01:00:27.633Z,10.90
2023-09-26T01:03:17.365Z,10.55
2023-09-26T01:06:05.520Z,14.50
2023-09-26T01:08:53.329Z,9.85
2023-09-26T01:11:41.351Z,9.55
2023-09-26T01:14:28.935Z,13.43
2023-09-26T01:17:19.143Z,12.77
2023-09-26T01:20:14.343Z,15.75
2023-09-26T01:23:05.596Z,11.07
2023-09-26T01:25:55.413Z,13.48
2023-09-26T01:28:42.901Z,5.20
2023-09-26T01:31:30.608Z,13.02
2023-09-26T01:34:18.935Z,7.07
2023-09-26T01:37:06.871Z,15.63
2023-09-26T01:39:54.671Z,15.35
2023-09-26T01:42:43.574Z,8.73
2023-09-26T01:45:31.091Z,14.88
2023-09-26T01:48:18.826Z,13.38
2023-09-26T01:51:07.500Z,14.52
2023-09-26T01:53:55.274Z,13.93
2023-09-26T01:56:43.171Z,11.30
2023-09-26T01:59:32.427Z,13.10
2023-09-26T02:02:20.468Z,13.93
2023-09-26T02:05:09.094Z,15.43
2023-09-26T02:07:56.851Z,13.30
2023-09-26T02:10:45.123Z,7.70
2023-09-26T02:13:33.552Z,14.70
2023-09-26T02:16:23.013Z,9.68
2023-09-26T02:19:11.976Z,10.05
2023-09-26T02:21:59.751Z,20.15
2023-09-26T02:24:47.525Z,10.25
2023-09-26T02:27:35.943Z,11.57
2023-09-26T02:30:25.047Z,20.08
2023-09-26T02:33:14.033Z,30.92
2023-09-26T02:36:01.560Z,23.65
2023-09-26T02:38:51.247Z,18.63
2023-09-26T02:41:39.255Z,9.00
2023-09-26T02:44:27.303Z,15.38
2023-09-26T02:47:15.223Z,16.40
2023-09-26T02:50:04.773Z,16.55
2023-09-26T02:52:53.406Z,16.45
2023-09-26T02:55:42.578Z,14.77
2023-09-26T02:58:30.556Z,16.55
2023-09-26T03:01:18.651Z,10.15
2023-09-26T03:04:07.540Z,18.70
2023-09-26T03:06:57.036Z,17.52
2023-09-26T03:09:45.087Z,17.33
2023-09-26T03:12:33.015Z,6.35
2023-09-26T03:15:20.907Z,22.65
2023-09-26T03:18:08.609Z,19.35
2023-09-26T03:20:57.243Z,29.65
2023-09-26T03:23:46.541Z,22.75
2023-09-26T03:26:34.500Z,26.85
2023-09-26T03:29:22.380Z,27.02
2023-09-26T03:32:11.676Z,141.15
2023-09-26T03:34:59.749Z,35.78
2023-09-26T03:37:47.686Z,25.52
2023-09-26T03:40:36.798Z,13.00
2023-09-26T03:43:24.499Z,18.40
2023-09-26T03:46:12.204Z,32.33
2023-09-26T03:49:00.279Z,28.85
2023-09-26T03:51:48.051Z,20.63
2023-09-26T03:54:36.905Z,22.33
2023-09-26T03:57:26.517Z,9.32
2023-09-26T04:00:17.324Z,22.70
2023-09-26T04:03:05.538Z,14.80
2023-09-26T04:05:58.749Z,33.28
2023-09-26T04:08:47.147Z,19.75
2023-09-26T04:11:34.990Z,26.02
2023-09-26T04:14:24.744Z,23.80
2023-09-26T04:17:12.961Z,53.88
2023-09-26T04:20:01.169Z,35.70
2023-09-26T04:22:49.323Z,27.20
2023-09-26T04:25:37.828Z,29.33
2023-09-26T04:28:25.770Z,14.38
2023-09-26T04:31:17.563Z,28.05
2023-09-26T04:34:06.376Z,15.82
2023-09-26T04:36:54.626Z,31.92
2023-09-26T04:39:45.482Z,40.90
2023-09-26T04:42:34.121Z,19.35
2023-09-26T04:45:22.102Z,33.22
2023-09-26T04:48:11.600Z,22.48
2023-09-26T04:50:59.515Z,33.13
2023-09-26T04:53:47.131Z,33.92
2023-09-26T04:56:34.820Z,36.88
2023-09-26T04:59:22.554Z,35.00
2023-09-26T05:02:10.355Z,35.67
2023-09-26T05:05:00.033Z,37.33
2023-09-26T05:07:49.924Z,36.42
2023-09-26T05:10:39.567Z,34.83
2023-09-26T05:13:27.684Z,33.25
2023-09-26T05:16:16.551Z,38.35
2023-09-26T05:19:04.781Z,34.28
2023-09-26T05:21:54.000Z,37.47
2023-09-26T05:24:41.801Z,46.08
2023-09-26T05:27:29.733Z,28.30
2023-09-26T05:30:17.536Z,53.80
2023-09-26T05:33:05.238Z,60.90
2023-09-26T05:35:54.509Z,63.08
2023-09-26T05:38:43.959Z,72.82
2023-09-26T05:41:31.688Z,63.42
2023-09-26T05:44:19.878Z,72.07
2023-09-26T05:47:08.000Z,73.05
2023-09-26T05:49:55.680Z,76.00
2023-09-26T05:52:43.507Z,82.82
2023-09-26T05:55:32.844Z,85.65
2023-09-26T05:58:20.868Z,80.57
2023-09-26T06:01:10.163Z,76.45
2023-09-26T06:03:58.590Z,74.53
2023-09-26T06:06:46.677Z,70.43
2023-09-26T06:09:34.187Z,72.40
2023-09-26T06:12:23.171Z,77.05
2023-09-26T06:15:11.920Z,73.60
2023-09-26T06:18:00.857Z,73.57
2023-09-26T06:20:48.706Z,72.22
2023-09-26T06:23:38.004Z,78.82
2023-09-26T06:26:25.893Z,72.28
2023-09-26T06:29:15.470Z,70.32
2023-09-26T06:32:03.298Z,73.43
2023-09-26T06:34:53.048Z,75.90
2023-09-26T06:37:41.784Z,78.28
2023-09-26T06:40:29.448Z,76.47
2023-09-26T06:43:17.436Z,69.95
2023-09-26T06:46:08.206Z,81.88
2023-09-26T06:48:56.409Z,80.10
2023-09-26T06:51:44.350Z,76.63
2023-09-26T06:54:34.135Z,74.88
2023-09-26T06:57:27.565Z,72.63
2023-09-26T07:00:18.211Z,74.28
2023-09-26T07:03:08.456Z,68.97
2023-09-26T07:05:56.137Z,63.35
2023-09-26T07:08:45.832Z,65.72
2023-09-26T07:11:33.706Z,67.32
2023-09-26T07:14:21.346Z,68.75
2023-09-26T07:17:11.354Z,63.97
2023-09-26T07:20:02.289Z,63.42
2023-09-26T07:22:50.117Z,58.83
2023-09-26T07:25:37.953Z,53.42
2023-09-26T07:28:26.046Z,55.90
2023-09-26T07:31:15.116Z,53.10
2023-09-26T07:34:03.557Z,51.28
2023-09-26T07:36:53.488Z,51.53
2023-09-26T07:39:41.459Z,50.60
2023-09-26T07:42:29.264Z,41.05
2023-09-26T07:45:18.022Z,41.47
2023-09-26T07:48:06.259Z,43.35
2023-09-26T07:50:54.330Z,43.10
2023-09-26T07:53:43.631Z,40.30
2023-09-26T07:56:31.332Z,34.90
2023-09-26T07:59:19.456Z,31.00
2023-09-26T08:02:07.514Z,29.65
2023-09-26T08:04:55.741Z,32.83
2023-09-26T08:07:44.688Z,32.15
2023-09-26T08:10:34.107Z,29.88
2023-09-26T08:13:21.927Z,30.27
2023-09-26T08:16:10.657Z,26.63
2023-09-26T08:18:58.825Z,26.85
2023-09-26T08:21:46.795Z,28.45
2023-09-26T08:24:34.689Z,24.58
2023-09-26T08:27:27.397Z,25.27
2023-09-26T08:30:15.385Z,28.00
2023-09-26T08:33:02.950Z,31.75
2023-09-26T08:35:50.898Z,24.83
2023-09-26T08:38:38.856Z,29.80
2023-09-26T08:41:27.762Z,28.60
2023-09-26T08:44:17.184Z,24.05
2023-09-26T08:47:04.846Z,27.73
2023-09-26T08:49:53.541Z,29.83
2023-09-26T08:52:41.531Z,28.13
2023-09-26T08:55:29.880Z,25.75
2023-09-26T08:58:18.913Z,27.55
2023-09-26T09:01:08.673Z,27.33
2023-09-26T09:03:56.821Z,29.30
2023-09-26T09:06:44.467Z,27.90
2023-09-26T09:09:33.143Z,26.13
2023-09-26T09:12:24.149Z,27.92
2023-09-26T09:15:21.545Z,27.23
2023-09-26T09:18:10.851Z,28.58
2023-09-26T09:20:58.628Z,27.35
2023-09-26T09:23:48.651Z,26.90
2023-09-26T09:26:37.128Z,25.40
2023-09-26T09:29:25.188Z,31.23
2023-09-26T09:32:13.024Z,28.77
2023-09-26T09:35:02.167Z,25.38
2023-09-26T09:37:51.801Z,27.30
2023-09-26T09:40:40.026Z,28.92
2023-09-26T09:43:27.995Z,24.88
2023-09-26T09:46:15.728Z,28.23
2023-09-26T09:49:05.650Z,29.23
2023-09-26T09:51:57.640Z,28.80
2023-09-26T09:54:46.665Z,27.02
2023-09-26T09:57:35.468Z,27.30
2023-09-26T10:00:26.080Z,30.00
2023-09-26T10:03:14.529Z,28.48
2023-09-26T10:06:03.898Z,28.25
2023-09-26T10:08:55.043Z,28.95
2023-09-26T10:11:43.830Z,24.75
2023-09-26T10:14:34.228Z,27.23
2023-09-26T10:17:23.208Z,26.45
2023-09-26T10:23:12.248Z,25.30
2023-09-26T10:26:04.423Z,26.17
2023-09-26T10:28:54.194Z,26.63
2023-09-26T10:31:43.289Z,28.42
2023-09-26T10:34:51.372Z,24.95
2023-09-26T10:37:40.847Z,25.30
2023-09-26T10:40:29.005Z,24.08
2023-09-26T10:43:43.144Z,26.13
2023-09-26T10:46:26.556Z,24.95
2023-09-26T10:49:14.978Z,22.85
2023-09-26T10:52:04.088Z,25.27
2023-09-26T10:54:52.807Z,27.70
2023-09-26T10:57:41.256Z,27.35
2023-09-26T11:00:30.320Z,23.95
2023-09-26T11:03:18.433Z,25.77
2023-09-26T11:06:08.289Z,23.85
2023-09-26T11:08:56.278Z,24.50
2023-09-26T11:11:45.217Z,23.80
2023-09-26T11:14:33.487Z,22.83
2023-09-26T11:17:22.814Z,22.00
2023-09-26T11:20:12.762Z,23.05
2023-09-26T11:23:00.785Z,20.80
2023-09-26T11:25:53.793Z,21.73
2023-09-26T11:28:41.691Z,20.33
2023-09-26T11:31:30.392Z,21.83
2023-09-26T11:34:20.321Z,22.42
2023-09-26T11:37:08.710Z,18.77
2023-09-26T11:39:57.928Z,22.70
2023-09-26T11:42:47.612Z,21.30
2023-09-26T11:45:35.877Z,21.00
2023-09-26T11:48:24.068Z,18.08
2023-09-26T11:51:13.048Z,19.40
2023-09-26T11:54:00.899Z,24.67
2023-09-26T11:56:49.920Z,19.60
2023-09-26T11:59:37.972Z,17.35
2023-09-26T12:02:26.557Z,17.30
2023-09-26T12:05:14.785Z,18.60
2023-09-26T12:08:03.829Z,18.42
2023-09-26T12:10:51.425Z,17.58
2023-09-26T12:13:39.463Z,16.33
2023-09-26T12:16:30.971Z,18.95
2023-09-26T12:19:19.063Z,20.10
2023-09-26T12:22:06.836Z,18.42
2023-09-26T12:24:56.968Z,18.38
2023-09-26T12:27:45.409Z,19.05
2023-09-26T12:30:33.002Z,18.33
2023-09-26T12:33:21.354Z,20.08
2023-09-26T12:36:09.558Z,17.80
2023-09-26T12:38:57.545Z,15.02
2023-09-26T12:41:46.835Z,16.02
2023-09-26T12:44:37.418Z,15.50
2023-09-26T12:47:25.326Z,15.60
2023-09-26T12:50:13.536Z,15.52
2023-09-26T12:53:01.656Z,15.63
2023-09-26T12:55:49.555Z,16.52
2023-09-26T12:58:39.133Z,15.25
2023-09-26T13:01:26.996Z,14.70
2023-09-26T13:04:15.134Z,13.20
2023-09-26T13:07:03.088Z,14.50
2023-09-26T13:09:51.851Z,16.20
2023-09-26T13:12:40.588Z,14.57
2023-09-26T13:15:32.806Z,17.02
2023-09-26T13:18:20.614Z,13.82
2023-09-26T13:21:08.853Z,13.82
2023-09-26T13:23:57.013Z,12.90
2023-09-26T13:26:47.298Z,15.27
2023-09-26T13:29:35.217Z,12.85
2023-09-26T13:32:25.601Z,13.13
2023-09-26T13:35:13.642Z,14.13
2023-09-26T13:38:04.553Z,15.20
2023-09-26T13:40:53.623Z,14.40
2023-09-26T13:43:41.483Z,13.77
2023-09-26T13:46:29.695Z,14.48
2023-09-26T13:49:18.857Z,12.57
2023-09-26T13:52:07.181Z,12.75
2023-09-26T13:54:56.040Z,12.98
2023-09-26T13:57:43.864Z,11.82
2023-09-26T14:00:33.783Z,11.65
2023-09-26T14:03:22.046Z,14.00
2023-09-26T14:06:11.805Z,14.13
2023-09-26T14:08:59.820Z,12.15
2023-09-26T14:11:47.875Z,16.17
2023-09-26T14:14:35.625Z,15.13
2023-09-26T14:17:23.477Z,13.13
2023-09-26T14:20:11.806Z,15.43
2023-09-26T14:23:01.184Z,15.60
2023-09-26T14:25:54.263Z,13.18
2023-09-26T14:28:43.026Z,16.95
2023-09-26T14:31:31.545Z,13.32
2023-09-26T14:34:19.493Z,14.35
2023-09-26T14:37:07.316Z,12.68
2023-09-26T14:39:57.055Z,17.33
2023-09-26T14:42:44.873Z,15.20
2023-09-26T14:45:39.809Z,15.95
2023-09-26T14:48:31.297Z,15.57
2023-09-26T14:51:19.065Z,15.73
2023-09-26T14:54:07.249Z,13.05
2023-09-26T14:56:56.542Z,15.93
2023-09-26T14:59:44.473Z,14.30
2023-09-26T15:02:32.583Z,15.48
2023-09-26T15:05:20.900Z,13.55
2023-09-26T15:08:08.986Z,14.23
2023-09-26T15:10:56.894Z,14.05
2023-09-26T15:13:46.032Z,12.45
2023-09-26T15:16:33.970Z,14.18
2023-09-26T15:19:22.174Z,15.55
2023-09-26T15:22:10.375Z,16.70
2023-09-26T15:24:58.186Z,15.93
2023-09-26T15:27:46.248Z,19.38
2023-09-26T15:30:35.441Z,16.23
2023-09-26T15:33:23.417Z,16.88
2023-09-26T15:36:15.565Z,16.60
2023-09-26T15:39:03.622Z,17.00
2023-09-26T15:41:52.420Z,16.00
2023-09-26T15:44:41.797Z,17.55
2023-09-26T15:47:31.335Z,15.63
2023-09-26T15:50:19.776Z,18.60
2023-09-26T15:53:07.575Z,17.67
2023-09-26T15:55:55.517Z,21.75
2023-09-26T15:58:44.360Z,18.58
2023-09-26T16:01:32.393Z,17.67
2023-09-26T16:04:21.674Z,18.00
2023-09-26T16:07:09.607Z,16.58
2023-09-26T16:09:57.782Z,16.38
2023-09-26T16:13:01.383Z,15.88
2023-09-26T16:15:54.364Z,17.08
2023-09-26T16:18:42.112Z,17.60
2023-09-26T16:21:31.289Z,17.60
2023-09-26T16:24:19.080Z,15.95
2023-09-26T16:27:06.787Z,16.80
2023-09-26T16:29:54.918Z,15.52
2023-09-26T16:32:42.929Z,17.80
2023-09-26T16:35:31.367Z,17.27
2023-09-26T16:38:20.389Z,17.67
2023-09-26T16:41:08.506Z,16.38
2023-09-26T16:43:57.190Z,18.70
2023-09-26T16:46:44.889Z,18.42
2023-09-26T16:49:33.222Z,19.27
2023-09-26T16:52:21.230Z,16.13
2023-09-26T16:55:11.641Z,17.60
2023-09-26T16:57:59.579Z,16.48
2023-09-26T17:00:47.088Z,17.90
2023-09-26T17:03:36.260Z,17.50
2023-09-26T17:06:24.545Z,18.02
2023-09-26T17:09:12.775Z,19.25
2023-09-26T17:12:01.952Z,17.38
2023-09-26T17:14:50.330Z,18.90
2023-09-26T17:17:39.481Z,16.70
2023-09-26T17:20:27.387Z,17.92
2023-09-26T17:23:15.448Z,16.38
2023-09-26T17:26:03.078Z,16.95
2023-09-26T17:28:53.123Z,19.05
2023-09-26T17:31:41.362Z,18.17
2023-09-26T17:34:29.673Z,19.27
2023-09-26T17:37:17.573Z,20.88
2023-09-26T17:40:05.788Z,18.88
2023-09-26T17:42:53.993Z,16.08
2023-09-26T17:45:43.491Z,16.98
2023-09-26T17:48:32.190Z,17.88
2023-09-26T17:51:22.123Z,20.08
2023-09-26T17:54:09.877Z,18.02
2023-09-26T17:56:58.039Z,20.60
2023-09-26T17:59:45.950Z,16.90
2023-09-26T18:02:35.442Z,20.33
2023-09-26T18:05:25.251Z,21.27
2023-09-26T18:08:12.860Z,20.77
2023-09-26T18:11:03.322Z,21.50
2023-09-26T18:13:51.265Z,19.95
2023-09-26T18:16:38.939Z,19.17
2023-09-26T18:19:28.308Z,20.88
2023-09-26T18:22:16.164Z,18.35
2023-09-26T18:25:04.439Z,18.95
2023-09-26T18:27:52.133Z,16.30
2023-09-26T18:30:39.700Z,16.83
2023-09-26T18:33:27.668Z,16.42
2023-09-26T18:36:17.144Z,19.55
2023-09-26T18:39:05.873Z,16.75
2023-09-26T18:41:53.604Z,16.75
2023-09-26T18:44:41.082Z,17.17
2023-09-26T18:47:29.071Z,16.95
2023-09-26T18:50:17.995Z,24.10
2023-09-26T18:53:07.750Z,17.60
2023-09-26T18:55:55.945Z,19.02
2023-09-26T18:58:43.740Z,19.00
2023-09-26T19:01:33.328Z,20.50
2023-09-26T19:04:21.648Z,18.73
2023-09-26T19:07:09.402Z,21.00
2023-09-26T19:09:58.603Z,21.05
2023-09-26T19:12:47.558Z,23.10
2023-09-26T19:15:35.245Z,20.90
2023-09-26T19:18:23.579Z,21.98
2023-09-26T19:21:11.555Z,23.40
2023-09-26T19:23:59.330Z,24.15
2023-09-26T19:26:48.791Z,23.05
2023-09-26T19:29:36.849Z,22.60
2023-09-26T19:32:25.014Z,22.85
2023-09-26T19:35:12.606Z,23.48
2023-09-26T19:38:00.754Z,26.17
2023-09-26T19:40:48.673Z,23.88
2023-09-26T19:43:38.012Z,22.45
2023-09-26T19:46:26.231Z,29.77
2023-09-26T19:49:14.326Z,31.10
2023-09-26T19:52:02.091Z,29.33
2023-09-26T19:54:49.938Z,30.30
2023-09-26T19:57:37.602Z,32.92
2023-09-26T20:00:26.786Z,28.83
2023-09-26T20:03:15.049Z,29.15
2023-09-26T20:06:02.867Z,31.08
2023-09-26T20:08:50.899Z,30.48
2023-09-26T20:11:38.674Z,31.58
2023-09-26T20:14:26.629Z,35.85
2023-09-26T20:17:15.886Z,33.42
2023-09-26T20:20:03.886Z,34.78
2023-09-26T20:22:51.761Z,35.28
2023-09-26T20:25:39.610Z,28.33
2023-09-26T20:28:27.554Z,30.33
2023-09-26T20:31:17.114Z,29.63
2023-09-26T20:34:07.772Z,31.88
2023-09-26T20:36:57.180Z,31.85
2023-09-26T20:39:45.160Z,30.90
2023-09-26T20:42:33.294Z,35.33
2023-09-26T20:45:21.271Z,32.25
2023-09-26T20:48:09.328Z,42.70
2023-09-26T20:50:58.761Z,33.05
2023-09-26T20:53:46.576Z,37.90
2023-09-26T20:56:34.344Z,32.75
2023-09-26T20:59:22.243Z,34.08
2023-09-26T21:02:10.052Z,31.33
2023-09-26T21:04:57.929Z,31.17
2023-09-26T21:07:47.176Z,40.03
2023-09-26T21:10:35.394Z,43.05
2023-09-26T21:13:23.393Z,34.75
2023-09-26T21:16:12.802Z,32.05
2023-09-26T21:19:00.916Z,34.97
2023-09-26T21:21:49.270Z,38.08
2023-09-26T21:24:39.749Z,35.70
2023-09-26T21:27:27.588Z,35.22
2023-09-26T21:30:15.807Z,32.88
2023-09-26T21:33:03.766Z,33.80
2023-09-26T21:35:53.060Z,33.60
2023-09-26T21:38:40.806Z,33.92
2023-09-26T21:41:30.385Z,32.60
2023-09-26T21:44:18.174Z,29.17
2023-09-26T21:47:06.441Z,29.90
2023-09-26T21:49:55.027Z,30.75
2023-09-26T21:52:43.439Z,27.70
2023-09-26T21:55:31.084Z,30.13
2023-09-26T21:58:20.883Z,29.13
2023-09-26T22:01:09.282Z,34.80
2023-09-26T22:03:57.181Z,30.23
2023-09-26T22:06:45.233Z,36.63
2023-09-26T22:09:33.153Z,42.35
2023-09-26T22:12:21.540Z,44.08
2023-09-26T22:15:11.428Z,37.20
2023-09-26T22:18:01.097Z,30.13
2023-09-26T22:20:51.044Z,25.70
2023-09-26T22:23:39.386Z,26.38
2023-09-26T22:26:27.379Z,28.88
2023-09-26T22:29:15.157Z,25.75
2023-09-26T22:32:04.443Z,26.60
2023-09-26T22:34:52.263Z,26.98
2023-09-26T22:37:40.211Z,27.38
2023-09-26T22:40:36.382Z,26.10
2023-09-26T22:43:32.504Z,30.60
2023-09-26T22:46:20.618Z,26.80
2023-09-26T22:49:10.126Z,26.60
2023-09-26T22:51:58.762Z,24.88
2023-09-26T22:54:46.548Z,28.20
2023-09-26T22:57:34.235Z,29.35
2023-09-26T23:00:22.152Z,30.88
2023-09-26T23:03:10.099Z,26.67
2023-09-26T23:06:00.899Z,23.52
2023-09-26T23:08:48.756Z,23.45
2023-09-26T23:11:36.538Z,22.38
2023-09-26T23:14:24.791Z,24.15
2023-09-26T23:17:12.781Z,31.55
2023-09-26T23:20:00.718Z,30.42
2023-09-26T23:22:49.858Z,30.20
2023-09-26T23:25:37.891Z,26.40
2023-09-26T23:28:25.817Z,25.88
2023-09-26T23:31:13.879Z,29.58
2023-09-26T23:34:01.939Z,29.95
2023-09-26T23:36:49.804Z,29.17
2023-09-26T23:39:39.179Z,25.95
2023-09-26T23:42:27.001Z,29.42
2023-09-26T23:45:15.155Z,23.30
2023-09-26T23:48:03.930Z,25.05
2023-09-26T23:50:51.991Z,23.67
2023-09-26T23:53:39.772Z,25.27
2023-09-26T23:56:29.660Z,26.08
2023-09-26T23:59:17.518Z,23.08
